Time;durP1;ratioP1;P1;durP2;ratioP2;P2;SDS_P1;SDS_P2;PMS_P1;PMS_P2;Temp;Humidity;BMP_temperature;BMP_pressure;BME280_temperature;BME280_humidity;BME280_pressure;Samples;Min_cycle;Max_cycle;Signal;HPM_P1;HPM_P2
2022/06/24 00:00:09;;;;;;;;;;;;;;;;;;5032191;28;19971;-76
2022/06/24 00:02:36;;;;;;;;;;;;;;;;;;5032180;28;19931;-76
2022/06/24 00:05:03;;;;;;;;;;;;;;;;;;5031880;28;19968;-76
2022/06/24 00:07:31;;;;;;;;;;;;;;;;;;5031671;28;19929;-76
2022/06/24 00:09:57;;;;;;;;;;;;;;;;;;5031479;28;19925;-76
2022/06/24 00:12:25;;;;;;;;;;;;;;;;;;5031964;28;20008;-76
2022/06/24 00:14:59;;;;;;;;;;;;;;;;;;5031619;28;20598;-76
2022/06/24 00:17:27;;;;;;;;;;;;;;;;;;5031728;28;20298;-76
2022/06/24 00:19:54;;;;;;;;;;;;;;;;;;5031093;28;20012;-76
2022/06/24 00:22:21;;;;;;;;;;;;;;;;;;5032109;28;19995;-76
2022/06/24 00:24:47;;;;;;;;;;;;;;;;;;5031420;28;20471;-76
2022/06/24 00:27:18;;;;;;;;;;;;;;;;;;5031762;28;19980;-76
2022/06/24 00:29:45;;;;;;;;;;;;;;;;;;5030983;28;20414;-76
2022/06/24 00:32:13;;;;;;;;;;;;;;;;;;5031350;28;19925;-76
2022/06/24 00:34:40;;;;;;;;;;;;;;;;;;5031233;28;20385;-76
2022/06/24 00:37:22;;;;;;;;;;;;;;;;;;5031443;28;20379;-76
2022/06/24 00:39:48;;;;;;;;;;;;;;;;;;5030880;28;20429;-76
2022/06/24 00:42:15;;;;;;;;;;;;;;;;;;5031396;28;20044;-76
2022/06/24 00:44:45;;;;;;;;;;;;;;;;;;5031230;28;20394;-76
2022/06/24 00:47:15;;;;;;;;;;;;;;;;;;5031157;28;19925;-76
2022/06/24 00:49:42;;;;;;;;;;;;;;;;;;5031030;28;20903;-76
2022/06/24 00:52:10;;;;;;;;;;;;;;;;;;5031254;28;19928;-76
2022/06/24 00:54:37;;;;;;;;;;;;;;;;;;5031030;28;20414;-76
2022/06/24 00:57:04;;;;;;;;;;;;;;;;;;5032626;28;20019;-76
2022/06/24 00:59:33;;;;;;;;;;;;;;;;;;5032032;28;19968;-76
2022/06/24 01:02:00;;;;;;;;;;;;;;;;;;4970013;28;1801387;-76
2022/06/24 01:04:33;;;;;;;;;;;;;;;;;;5032040;28;19932;-76
2022/06/24 01:06:59;;;;;;;;;;;;;;;;;;5031930;28;19972;-76
2022/06/24 01:09:26;;;;;;;;;;;;;;;;;;5031640;28;19979;-76
2022/06/24 01:11:52;;;;;;;;;;;;;;;;;;5031819;28;19925;-76
2022/06/24 01:14:19;;;;;;;;;;;;;;;;;;5031904;28;19929;-76
2022/06/24 01:16:45;;;;;;;;;;;;;;;;;;5032026;28;20016;-76
2022/06/24 01:19:13;;;;;;;;;;;;;;;;;;5031821;28;19925;-76
2022/06/24 01:21:42;;;;;;;;;;;;;;;;;;5035840;28;19930;-76
2022/06/24 01:24:09;;;;;;;;;;;;;;;;;;5035835;28;20027;-76
2022/06/24 01:26:36;;;;;;;;;;;;;;;;;;5035421;28;20008;-76
2022/06/24 01:29:02;;;;;;;;;;;;;;;;;;5035656;28;19925;-76
2022/06/24 01:31:29;;;;;;;;;;;;;;;;;;5035273;28;19924;-76
2022/06/24 01:33:55;;;;;;;;;;;;;;;;;;5035306;28;19929;-76
2022/06/24 01:36:22;;;;;;;;;;;;;;;;;;5056399;23;19929;-64
2022/06/24 01:38:50;;;;;;;;;;;;;;;;;;5035659;28;19928;-64
2022/06/24 01:41:16;;;;;;;;;;;;;;;;;;5034980;28;19925;-64
2022/06/24 01:43:43;;;;;;;;;;;;;;;;;;5035453;28;19929;-65
2022/06/24 01:46:11;;;;;;;;;;;;;;;;;;5035221;28;19925;-65
2022/06/24 01:48:37;;;;;;;;;;;;;;;;;;5035357;28;19925;-63
2022/06/24 01:51:04;;;;;;;;;;;;;;;;;;5034883;28;19929;-65
2022/06/24 01:53:31;;;;;;;;;;;;;;;;;;5035474;28;20271;-65
2022/06/24 01:55:59;;;;;;;;;;;;;;;;;;5035037;28;19925;-65
2022/06/24 01:58:26;;;;;;;;;;;;;;;;;;5035059;28;19925;-64
2022/06/24 02:00:52;;;;;;;;;;;;;;;;;;5034842;28;19983;-65
2022/06/24 02:03:19;;;;;;;;;;;;;;;;;;5035182;28;19925;-64
2022/06/24 02:05:46;;;;;;;;;;;;;;;;;;5035103;28;20215;-65
2022/06/24 02:08:13;;;;;;;;;;;;;;;;;;5035099;28;20389;-65
2022/06/24 02:13:28;;;;;;;;;;;;;;;;;;5034948;28;19932;-65
2022/06/24 02:15:55;;;;;;;;;;;;;;;;;;5034762;28;19945;-64
2022/06/24 02:18:22;;;;;;;;;;;;;;;;;;5035275;28;20066;-66
2022/06/24 02:20:49;;;;;;;;;;;;;;;;;;5034491;28;19925;-64
2022/06/24 02:23:16;;;;;;;;;;;;;;;;;;5034857;28;20257;-64
2022/06/24 02:25:42;;;;;;;;;;;;;;;;;;5034639;28;19928;-65
2022/06/24 02:28:09;;;;;;;;;;;;;;;;;;5034634;28;19932;-64
2022/06/24 02:30:38;;;;;;;;;;;;;;;;;;5033892;28;20381;-64
2022/06/24 02:33:04;;;;;;;;;;;;;;;;;;5033820;28;20408;-65
2022/06/24 02:35:31;;;;;;;;;;;;;;;;;;5034412;28;20303;-65
2022/06/24 02:37:57;;;;;;;;;;;;;;;;;;5034294;28;20012;-67
2022/06/24 02:43:11;;;;;;;;;;;;;;;;;;5034394;28;19932;-65
2022/06/24 02:45:39;;;;;;;;;;;;;;;;;;5034158;28;20028;-64
2022/06/24 02:48:06;;;;;;;;;;;;;;;;;;5034173;28;20440;-64
2022/06/24 02:50:38;;;;;;;;;;;;;;;;;;5033916;28;19929;-66
2022/06/24 02:53:05;;;;;;;;;;;;;;;;;;5034305;28;20333;-64
2022/06/24 02:55:31;;;;;;;;;;;;;;;;;;5034048;28;19925;-65
2022/06/24 02:57:58;;;;;;;;;;;;;;;;;;5034078;28;19929;-64
2022/06/24 03:00:24;;;;;;;;;;;;;;;;;;5033780;28;19925;-65
2022/06/24 03:02:52;;;;;;;;;;;;;;;;;;5034289;28;19925;-64
2022/06/24 03:05:19;;;;;;;;;;;;;;;;;;5034213;28;19929;-64
2022/06/24 03:07:45;;;;;;;;;;;;;;;;;;5034062;28;19925;-65
2022/06/24 03:10:12;;;;;;;;;;;;;;;;;;5033738;28;19929;-66
2022/06/24 03:12:38;;;;;;;;;;;;;;;;;;5034022;28;19929;-64
2022/06/24 03:15:06;;;;;;;;;;;;;;;;;;5033766;28;19932;-65
2022/06/24 03:17:32;;;;;;;;;;;;;;;;;;5033678;28;19925;-64
2022/06/24 03:20:00;;;;;;;;;;;;;;;;;;5033419;28;19929;-64
2022/06/24 03:22:26;;;;;;;;;;;;;;;;;;5033381;28;19925;-66
2022/06/24 03:24:53;;;;;;;;;;;;;;;;;;5033546;28;19925;-66
2022/06/24 03:27:20;;;;;;;;;;;;;;;;;;5033418;28;19979;-64
2022/06/24 03:29:47;;;;;;;;;;;;;;;;;;5033514;28;19929;-65
2022/06/24 03:32:13;;;;;;;;;;;;;;;;;;5033222;28;19956;-65
2022/06/24 03:34:40;;;;;;;;;;;;;;;;;;5033435;28;19971;-65
2022/06/24 03:37:08;;;;;;;;;;;;;;;;;;5033075;28;19991;-65
2022/06/24 03:39:34;;;;;;;;;;;;;;;;;;5033085;28;19926;-65
2022/06/24 03:42:01;;;;;;;;;;;;;;;;;;5032857;28;19929;-65
2022/06/24 03:44:28;;;;;;;;;;;;;;;;;;5033035;28;19925;-64
2022/06/24 03:46:54;;;;;;;;;;;;;;;;;;5032997;28;19935;-66
2022/06/24 03:49:21;;;;;;;;;;;;;;;;;;5032794;28;19925;-65
2022/06/24 03:51:47;;;;;;;;;;;;;;;;;;5032877;28;19925;-65
2022/06/24 03:54:15;;;;;;;;;;;;;;;;;;5033041;28;19933;-64
2022/06/24 03:56:42;;;;;;;;;;;;;;;;;;5032717;28;19929;-66
2022/06/24 03:59:09;;;;;;;;;;;;;;;;;;5032773;28;19925;-65
2022/06/24 04:01:35;;;;;;;;;;;;;;;;;;5032600;28;19979;-65
2022/06/24 04:04:02;;;;;;;;;;;;;;;;;;5032938;28;19991;-65
2022/06/24 04:06:28;;;;;;;;;;;;;;;;;;5033045;28;20440;-65
2022/06/24 04:08:55;;;;;;;;;;;;;;;;;;5032780;28;19979;-64
2022/06/24 04:11:24;;;;;;;;;;;;;;;;;;5032494;28;19929;-65
2022/06/24 04:13:50;;;;;;;;;;;;;;;;;;5033019;28;19925;-66
2022/06/24 04:16:17;;;;;;;;;;;;;;;;;;5032627;28;20344;-65
2022/06/24 04:18:43;;;;;;;;;;;;;;;;;;5032632;28;19991;-65
2022/06/24 04:21:11;;;;;;;;;;;;;;;;;;5032258;28;19925;-66
2022/06/24 04:23:37;;;;;;;;;;;;;;;;;;5032646;28;20078;-64
2022/06/24 04:26:04;;;;;;;;;;;;;;;;;;5032546;28;20382;-65
2022/06/24 04:28:32;;;;;;;;;;;;;;;;;;5032542;28;19976;-65
2022/06/24 04:30:58;;;;;;;;;;;;;;;;;;5032420;28;20382;-66
2022/06/24 04:33:25;;;;;;;;;;;;;;;;;;5032621;28;19925;-66
2022/06/24 04:35:52;;;;;;;;;;;;;;;;;;5032375;28;19925;-65
2022/06/24 04:38:18;;;;;;;;;;;;;;;;;;5032403;28;19929;-65
2022/06/24 04:40:45;;;;;;;;;;;;;;;;;;5032229;28;19926;-65
2022/06/24 04:43:12;;;;;;;;;;;;;;;;;;5032341;28;19929;-65
2022/06/24 04:45:40;;;;;;;;;;;;;;;;;;5032699;28;20031;-63
2022/06/24 04:48:07;;;;;;;;;;;;;;;;;;5032251;28;19929;-64
2022/06/24 04:50:33;;;;;;;;;;;;;;;;;;5032365;28;20275;-65
2022/06/24 04:53:00;;;;;;;;;;;;;;;;;;5031918;28;19937;-65
2022/06/24 04:55:26;;;;;;;;;;;;;;;;;;5034430;28;19979;-64
2022/06/24 04:57:53;;;;;;;;;;;;;;;;;;5036211;28;19979;-65
2022/06/24 05:00:20;;;;;;;;;;;;;;;;;;5036147;28;20462;-65
2022/06/24 05:02:48;;;;;;;;;;;;;;;;;;5036222;28;20212;-65
2022/06/24 05:05:14;;;;;;;;;;;;;;;;;;5036139;28;20018;-65
2022/06/24 05:07:41;;;;;;;;;;;;;;;;;;5036180;28;19925;-65
2022/06/24 05:10:08;;;;;;;;;;;;;;;;;;5036183;28;19925;-66
2022/06/24 05:12:35;;;;;;;;;;;;;;;;;;5035980;28;19940;-64
2022/06/24 05:15:01;;;;;;;;;;;;;;;;;;5036075;28;19941;-64
2022/06/24 05:17:28;;;;;;;;;;;;;;;;;;5035957;28;20383;-65
2022/06/24 05:19:56;;;;;;;;;;;;;;;;;;5035799;28;19936;-65
2022/06/24 05:22:22;;;;;;;;;;;;;;;;;;5035958;28;19925;-66
2022/06/24 05:24:49;;;;;;;;;;;;;;;;;;5036418;28;19925;-66
2022/06/24 05:27:15;;;;;;;;;;;;;;;;;;5036181;28;19979;-64
2022/06/24 05:29:42;;;;;;;;;;;;;;;;;;5035842;28;19995;-65
2022/06/24 05:32:09;;;;;;;;;;;;;;;;;;5035357;28;19983;-65
2022/06/24 05:34:35;;;;;;;;;;;;;;;;;;5035632;28;19933;-67
2022/06/24 05:37:03;;;;;;;;;;;;;;;;;;5035353;28;20000;-65
2022/06/24 05:39:30;;;;;;;;;;;;;;;;;;5035361;28;19971;-62
2022/06/24 05:41:56;;;;;;;;;;;;;;;;;;5035437;28;19925;-63
2022/06/24 05:44:23;;;;;;;;;;;;;;;;;;5035497;28;20394;-64
2022/06/24 05:46:51;;;;;;;;;;;;;;;;;;5035346;28;20390;-63
2022/06/24 05:49:18;;;;;;;;;;;;;;;;;;5035414;28;19929;-65
2022/06/24 05:51:44;;;;;;;;;;;;;;;;;;5035197;28;20314;-63
2022/06/24 05:56:56;;;;;;;;;;;;;;;;;;5035470;28;19979;-64
2022/06/24 05:59:22;;;;;;;;;;;;;;;;;;5034901;28;19925;-63
2022/06/24 06:01:49;;;;;;;;;;;;;;;;;;5035074;28;19928;-64
2022/06/24 06:04:16;;;;;;;;;;;;;;;;;;5035044;28;20015;-65
2022/06/24 06:06:42;;;;;;;;;;;;;;;;;;5034834;28;19932;-65
2022/06/24 06:09:10;;;;;;;;;;;;;;;;;;5034556;28;19988;-63
2022/06/24 06:11:38;;;;;;;;;;;;;;;;;;5035044;28;19940;-64
2022/06/24 06:14:05;;;;;;;;;;;;;;;;;;5034523;28;19929;-64
2022/06/24 06:16:31;;;;;;;;;;;;;;;;;;5034620;28;19929;-65
2022/06/24 06:18:58;;;;;;;;;;;;;;;;;;5034892;28;19929;-65
2022/06/24 06:21:24;;;;;;;;;;;;;;;;;;5034600;28;19979;-65
2022/06/24 06:23:51;;;;;;;;;;;;;;;;;;5034576;28;19979;-65
2022/06/24 06:26:17;;;;;;;;;;;;;;;;;;5035188;28;19925;-64
2022/06/24 06:28:45;;;;;;;;;;;;;;;;;;5034527;28;19926;-65
2022/06/24 06:31:12;;;;;;;;;;;;;;;;;;5034572;28;19925;-65
2022/06/24 06:33:38;;;;;;;;;;;;;;;;;;5034238;28;19979;-66
2022/06/24 06:36:06;;;;;;;;;;;;;;;;;;5034453;28;19929;-64
2022/06/24 06:38:32;;;;;;;;;;;;;;;;;;5034191;28;19929;-64
2022/06/24 06:40:59;;;;;;;;;;;;;;;;;;5033945;28;19925;-64
2022/06/24 06:43:26;;;;;;;;;;;;;;;;;;5033356;28;19925;-64
2022/06/24 06:45:54;;;;;;;;;;;;;;;;;;5034272;28;20294;-63
2022/06/24 06:48:21;;;;;;;;;;;;;;;;;;5034160;28;19925;-65
2022/06/24 06:50:47;;;;;;;;;;;;;;;;;;5033707;28;19932;-64
2022/06/24 06:53:14;;;;;;;;;;;;;;;;;;5033847;28;19979;-64
2022/06/24 06:55:41;;;;;;;;;;;;;;;;;;5034954;28;19964;-63
2022/06/24 06:58:07;;;;;;;;;;;;;;;;;;5035405;28;19936;-64
2022/06/24 07:00:34;;;;;;;;;;;;;;;;;;5034560;28;19924;-65
2022/06/24 07:03:03;;;;;;;;;;;;;;;;;;5030571;28;19925;-64
2022/06/24 07:05:31;;;;;;;;;;;;;;;;;;5031680;28;19968;-65
2022/06/24 07:07:57;;;;;;;;;;;;;;;;;;5032725;28;19925;-65
2022/06/24 07:10:24;;;;;;;;;;;;;;;;;;5032122;28;19931;-64
2022/06/24 07:12:51;;;;;;;;;;;;;;;;;;5031897;28;19932;-63
2022/06/24 07:15:18;;;;;;;;;;;;;;;;;;5032015;28;19932;-63
2022/06/24 07:17:44;;;;;;;;;;;;;;;;;;5030815;28;19932;-64
2022/06/24 07:20:12;;;;;;;;;;;;;;;;;;5031402;28;20015;-63
2022/06/24 07:22:39;;;;;;;;;;;;;;;;;;5031668;28;19925;-64
2022/06/24 07:25:07;;;;;;;;;;;;;;;;;;5031590;28;19932;-64
2022/06/24 07:27:33;;;;;;;;;;;;;;;;;;5031974;28;20437;-64
2022/06/24 07:30:00;;;;;;;;;;;;;;;;;;5030766;28;20386;-63
2022/06/24 07:32:26;;;;;;;;;;;;;;;;;;5031118;28;19925;-63
2022/06/24 07:34:53;;;;;;;;;;;;;;;;;;5031330;28;19932;-64
2022/06/24 07:37:21;;;;;;;;;;;;;;;;;;5031208;28;19925;-64
2022/06/24 07:39:48;;;;;;;;;;;;;;;;;;5031393;28;19925;-64
2022/06/24 07:42:14;;;;;;;;;;;;;;;;;;5030497;28;19925;-64
2022/06/24 07:44:43;;;;;;;;;;;;;;;;;;5031212;28;19925;-64
2022/06/24 07:47:09;;;;;;;;;;;;;;;;;;5030215;28;19932;-64
2022/06/24 07:49:36;;;;;;;;;;;;;;;;;;5031309;28;19925;-64
2022/06/24 07:52:02;;;;;;;;;;;;;;;;;;5053106;22;20020;-77
2022/06/24 07:54:31;;;;;;;;;;;;;;;;;;5027578;28;20086;-77
2022/06/24 07:56:56;;;;;;;;;;;;;;;;;;5031540;28;19968;-78
2022/06/24 07:59:23;;;;;;;;;;;;;;;;;;5031151;28;19971;-77
2022/06/24 08:01:50;;;;;;;;;;;;;;;;;;5031035;28;19975;-77
2022/06/24 08:04:16;;;;;;;;;;;;;;;;;;5030816;28;20008;-77
2022/06/24 08:06:46;;;;;;;;;;;;;;;;;;5030867;28;19968;-77
2022/06/24 08:09:12;;;;;;;;;;;;;;;;;;5031888;28;20015;-77
2022/06/24 08:11:40;;;;;;;;;;;;;;;;;;5031939;28;20344;-77
2022/06/24 08:14:07;;;;;;;;;;;;;;;;;;5031622;28;19964;-78
2022/06/24 08:16:33;;;;;;;;;;;;;;;;;;5030796;28;20346;-77
2022/06/24 08:19:00;;;;;;;;;;;;;;;;;;5031112;28;20012;-77
2022/06/24 08:21:26;;;;;;;;;;;;;;;;;;5030964;28;20361;-78
2022/06/24 08:23:53;;;;;;;;;;;;;;;;;;5031373;28;19976;-77
2022/06/24 08:26:19;;;;;;;;;;;;;;;;;;5032205;28;19972;-78
2022/06/24 08:28:47;;;;;;;;;;;;;;;;;;5031718;28;20422;-79
2022/06/24 08:31:14;;;;;;;;;;;;;;;;;;5030976;28;19964;-77
2022/06/24 08:33:40;;;;;;;;;;;;;;;;;;5031229;28;19932;-77
2022/06/24 08:36:07;;;;;;;;;;;;;;;;;;5030737;28;20020;-77
2022/06/24 08:38:33;;;;;;;;;;;;;;;;;;5030569;28;19936;-77
2022/06/24 08:41:00;;;;;;;;;;;;;;;;;;5029960;28;20414;-77
2022/06/24 08:43:30;;;;;;;;;;;;;;;;;;5030649;28;19935;-77
2022/06/24 08:45:58;;;;;;;;;;;;;;;;;;5029790;28;19925;-77
2022/06/24 08:48:26;;;;;;;;;;;;;;;;;;5030403;28;19933;-77
2022/06/24 08:50:53;;;;;;;;;;;;;;;;;;5030161;28;19925;-77
2022/06/24 08:53:22;;;;;;;;;;;;;;;;;;5030303;28;19983;-77
2022/06/24 08:55:50;;;;;;;;;;;;;;;;;;5030245;28;20415;-76
2022/06/24 08:58:17;;;;;;;;;;;;;;;;;;5030200;28;20021;-77
2022/06/24 09:00:44;;;;;;;;;;;;;;;;;;5029700;28;20006;-78
2022/06/24 09:03:12;;;;;;;;;;;;;;;;;;5029905;28;19929;-78
2022/06/24 09:05:40;;;;;;;;;;;;;;;;;;5030183;28;19925;-77
2022/06/24 09:08:07;;;;;;;;;;;;;;;;;;5030394;28;19926;-77
2022/06/24 09:10:35;;;;;;;;;;;;;;;;;;5029689;28;20015;-78
2022/06/24 09:13:01;;;;;;;;;;;;;;;;;;5030361;28;20116;-78
2022/06/24 09:15:28;;;;;;;;;;;;;;;;;;5030821;28;20028;-78
2022/06/24 09:17:55;;;;;;;;;;;;;;;;;;5030747;28;20027;-78
2022/06/24 09:20:23;;;;;;;;;;;;;;;;;;5029802;28;19925;-77
2022/06/24 09:22:50;;;;;;;;;;;;;;;;;;5029991;28;20447;-78
2022/06/24 09:25:17;;;;;;;;;;;;;;;;;;5029950;28;20549;-77
2022/06/24 09:27:45;;;;;;;;;;;;;;;;;;5037180;28;20412;-77
2022/06/24 09:30:12;;;;;;;;;;;;;;;;;;5049627;28;20388;-78
2022/06/24 09:32:49;;;;;;;;;;;;;;;;;;5038013;28;19924;-78
2022/06/24 09:35:15;;;;;;;;;;;;;;;;;;5050250;28;20019;-78
2022/06/24 09:37:44;;;;;;;;;;;;;;;;;;5050442;28;20011;-77
2022/06/24 09:40:21;;;;;;;;;;;;;;;;;;5049761;28;20012;-78
2022/06/24 09:42:58;;;;;;;;;;;;;;;;;;5053376;28;19925;-78
2022/06/24 09:45:25;;;;;;;;;;;;;;;;;;5053406;28;20433;-77
2022/06/24 09:47:52;;;;;;;;;;;;;;;;;;5053662;28;19992;-76
2022/06/24 09:50:21;;;;;;;;;;;;;;;;;;5053290;28;19925;-78
2022/06/24 09:52:49;;;;;;;;;;;;;;;;;;5052865;28;19979;-77
2022/06/24 09:55:16;;;;;;;;;;;;;;;;;;5053406;28;20015;-79
2022/06/24 09:57:43;;;;;;;;;;;;;;;;;;5053488;28;20388;-79
2022/06/24 10:02:55;;;;;;;;;;;;;;;;;;5033983;28;20000;-77
2022/06/24 10:05:21;;;;;;;;;;;;;;;;;;5031779;28;19936;-77
2022/06/24 10:07:49;;;;;;;;;;;;;;;;;;5033115;28;19956;-77
2022/06/24 10:10:16;;;;;;;;;;;;;;;;;;5032902;28;19925;-77
2022/06/24 10:12:46;;;;;;;;;;;;;;;;;;5038268;28;19972;-79
2022/06/24 10:15:14;;;;;;;;;;;;;;;;;;5036929;28;19987;-78
2022/06/24 10:17:42;;;;;;;;;;;;;;;;;;5033931;28;19979;-78
2022/06/24 10:20:09;;;;;;;;;;;;;;;;;;5034251;28;19926;-79
2022/06/24 10:22:36;;;;;;;;;;;;;;;;;;5033937;28;19960;-78
2022/06/24 10:25:04;;;;;;;;;;;;;;;;;;5033230;28;19987;-77
2022/06/24 10:27:45;;;;;;;;;;;;;;;;;;5033188;28;19929;-78
2022/06/24 10:30:12;;;;;;;;;;;;;;;;;;5033482;28;19979;-79
2022/06/24 10:32:59;;;;;;;;;;;;;;;;;;5036977;28;19984;-80
2022/06/24 10:35:26;;;;;;;;;;;;;;;;;;5035181;28;20329;-77
2022/06/24 10:37:54;;;;;;;;;;;;;;;;;;5032604;28;19925;-78
2022/06/24 10:40:24;;;;;;;;;;;;;;;;;;5032910;28;19929;-78
2022/06/24 10:43:04;;;;;;;;;;;;;;;;;;5032886;28;19929;-78
2022/06/24 10:45:34;;;;;;;;;;;;;;;;;;5032431;28;20364;-78
2022/06/24 10:48:00;;;;;;;;;;;;;;;;;;5032591;28;20020;-77
2022/06/24 10:50:27;;;;;;;;;;;;;;;;;;5032089;28;19925;-78
2022/06/24 10:53:00;;;;;;;;;;;;;;;;;;5030925;28;20450;-78
2022/06/24 10:55:35;;;;;;;;;;;;;;;;;;5032154;28;20407;-77
2022/06/24 10:58:03;;;;;;;;;;;;;;;;;;5032263;28;19971;-78
2022/06/24 11:00:41;;;;;;;;;;;;;;;;;;5031859;28;20023;-78
2022/06/24 11:03:13;;;;;;;;;;;;;;;;;;5031846;28;19925;-77
2022/06/24 11:05:40;;;;;;;;;;;;;;;;;;5032408;28;20447;-76
2022/06/24 11:08:10;;;;;;;;;;;;;;;;;;5033347;28;20019;-77
2022/06/24 11:10:38;;;;;;;;;;;;;;;;;;5031848;28;20019;-77
2022/06/24 11:13:04;;;;;;;;;;;;;;;;;;5032120;28;19961;-77
2022/06/24 11:15:34;;;;;;;;;;;;;;;;;;5032251;28;20024;-77
2022/06/24 11:18:05;;;;;;;;;;;;;;;;;;5032013;28;20292;-77
2022/06/24 11:20:32;;;;;;;;;;;;;;;;;;5032928;28;19952;-79
2022/06/24 11:22:58;;;;;;;;;;;;;;;;;;5034066;28;19932;-78
2022/06/24 11:25:25;;;;;;;;;;;;;;;;;;5036924;28;19925;-77
2022/06/24 11:27:53;;;;;;;;;;;;;;;;;;5040167;28;19968;-79
2022/06/24 11:30:20;;;;;;;;;;;;;;;;;;5039527;28;19925;-78
2022/06/24 11:32:50;;;;;;;;;;;;;;;;;;5036693;28;20416;-78
2022/06/24 11:35:17;;;;;;;;;;;;;;;;;;5034097;28;19925;-79
2022/06/24 11:37:44;;;;;;;;;;;;;;;;;;5033370;28;19988;-78
2022/06/24 11:40:11;;;;;;;;;;;;;;;;;;5034664;28;20011;-79
2022/06/24 11:42:37;;;;;;;;;;;;;;;;;;5033662;28;20279;-76
2022/06/24 11:45:06;;;;;;;;;;;;;;;;;;5031886;28;19982;-79
2022/06/24 11:47:34;;;;;;;;;;;;;;;;;;5031609;28;19925;-78
2022/06/24 11:50:00;;;;;;;;;;;;;;;;;;5031429;28;20004;-78
2022/06/24 11:52:26;;;;;;;;;;;;;;;;;;5031343;28;19976;-78
2022/06/24 11:54:53;;;;;;;;;;;;;;;;;;5031415;28;19932;-78
2022/06/24 11:57:21;;;;;;;;;;;;;;;;;;5032261;28;19925;-79
2022/06/24 11:59:47;;;;;;;;;;;;;;;;;;5031951;28;19971;-80
2022/06/24 12:02:16;;;;;;;;;;;;;;;;;;5035096;28;20000;-80
2022/06/24 12:04:43;;;;;;;;;;;;;;;;;;5033106;28;19931;-78
2022/06/24 12:07:10;;;;;;;;;;;;;;;;;;5033088;28;19932;-78
2022/06/24 12:09:37;;;;;;;;;;;;;;;;;;5031927;28;19925;-77
2022/06/24 12:12:10;;;;;;;;;;;;;;;;;;5033738;28;19989;-79
2022/06/24 12:14:37;;;;;;;;;;;;;;;;;;5014614;28;19989;-76
2022/06/24 12:17:06;;;;;;;;;;;;;;;;;;5011399;28;20550;-77
2022/06/24 12:19:34;;;;;;;;;;;;;;;;;;5010680;28;20001;-77
2022/06/24 12:22:08;;;;;;;;;;;;;;;;;;5011003;28;20020;-77
2022/06/24 12:24:36;;;;;;;;;;;;;;;;;;5011278;28;19932;-77
2022/06/24 12:27:04;;;;;;;;;;;;;;;;;;5012847;28;19929;-77
2022/06/24 12:29:32;;;;;;;;;;;;;;;;;;5011821;28;19972;-76
2022/06/24 12:31:59;;;;;;;;;;;;;;;;;;5013423;28;20016;-77
2022/06/24 12:34:26;;;;;;;;;;;;;;;;;;5013638;28;19925;-76
2022/06/24 12:36:57;;;;;;;;;;;;;;;;;;5013956;28;20316;-79
2022/06/24 12:39:28;;;;;;;;;;;;;;;;;;5013115;28;19965;-79
2022/06/24 12:41:54;;;;;;;;;;;;;;;;;;5014460;28;19925;-78
2022/06/24 12:44:21;;;;;;;;;;;;;;;;;;5012522;28;20021;-77
2022/06/24 12:52:30;;;;;;;;;;;;;;;;;;5014787;28;19948;-77
2022/06/24 12:54:56;;;;;;;;;;;;;;;;;;5014591;28;19925;-77
2022/06/24 12:57:23;;;;;;;;;;;;;;;;;;5012419;28;20380;-78
2022/06/24 12:59:49;;;;;;;;;;;;;;;;;;5011849;28;20016;-77
2022/06/24 13:02:16;;;;;;;;;;;;;;;;;;5011929;28;19926;-77
2022/06/24 13:04:45;;;;;;;;;;;;;;;;;;5034090;28;19925;-78
2022/06/24 13:07:11;;;;;;;;;;;;;;;;;;5035155;28;19925;-78
2022/06/24 13:09:39;;;;;;;;;;;;;;;;;;5031495;28;20023;-77
2022/06/24 13:12:06;;;;;;;;;;;;;;;;;;5032088;28;19979;-76
2022/06/24 13:14:32;;;;;;;;;;;;;;;;;;5030780;28;20038;-76
2022/06/24 13:16:59;;;;;;;;;;;;;;;;;;5033772;28;20016;-78
2022/06/24 13:19:25;;;;;;;;;;;;;;;;;;5036211;28;19967;-78
2022/06/24 13:21:52;;;;;;;;;;;;;;;;;;5038507;28;19925;-78
2022/06/24 13:24:19;;;;;;;;;;;;;;;;;;5036900;28;20028;-77
2022/06/24 13:26:47;;;;;;;;;;;;;;;;;;5036935;28;19925;-78
2022/06/24 13:29:14;;;;;;;;;;;;;;;;;;5037082;28;20411;-78
2022/06/24 13:31:41;;;;;;;;;;;;;;;;;;5035404;28;20028;-78
2022/06/24 13:34:08;;;;;;;;;;;;;;;;;;5034766;28;19979;-77
2022/06/24 13:36:34;;;;;;;;;;;;;;;;;;5036109;28;20012;-78
2022/06/24 13:39:01;;;;;;;;;;;;;;;;;;5036891;28;19929;-78
2022/06/24 13:41:28;;;;;;;;;;;;;;;;;;5034708;28;20427;-78
2022/06/24 13:43:56;;;;;;;;;;;;;;;;;;5033732;28;19925;-78
2022/06/24 13:46:22;;;;;;;;;;;;;;;;;;5036564;28;19944;-77
2022/06/24 13:48:49;;;;;;;;;;;;;;;;;;5033783;28;20004;-77
2022/06/24 13:51:15;;;;;;;;;;;;;;;;;;5033219;28;20008;-77
2022/06/24 13:53:42;;;;;;;;;;;;;;;;;;5034254;28;19985;-78
2022/06/24 13:56:08;;;;;;;;;;;;;;;;;;5036041;28;20458;-78
2022/06/24 13:58:36;;;;;;;;;;;;;;;;;;5037195;28;20235;-76
2022/06/24 14:01:04;;;;;;;;;;;;;;;;;;5037397;28;19925;-78
2022/06/24 14:03:30;;;;;;;;;;;;;;;;;;5037061;28;19925;-79
2022/06/24 14:05:59;;;;;;;;;;;;;;;;;;5040588;28;20020;-76
2022/06/24 14:08:26;;;;;;;;;;;;;;;;;;5040185;28;19932;-77
2022/06/24 14:10:52;;;;;;;;;;;;;;;;;;5042695;28;20383;-77
2022/06/24 14:13:19;;;;;;;;;;;;;;;;;;5043812;28;19932;-78
2022/06/24 14:15:45;;;;;;;;;;;;;;;;;;5037863;28;19925;-78
2022/06/24 14:18:13;;;;;;;;;;;;;;;;;;5035298;28;19925;-78
2022/06/24 14:20:40;;;;;;;;;;;;;;;;;;5035616;28;19932;-79
2022/06/24 14:25:51;;;;;;;;;;;;;;;;;;5037913;28;19951;-78
2022/06/24 14:28:17;;;;;;;;;;;;;;;;;;5033422;28;20019;-78
2022/06/24 14:30:43;;;;;;;;;;;;;;;;;;5081290;22;20001;-78
2022/06/24 14:33:10;;;;;;;;;;;;;;;;;;5062401;28;19993;-78
2022/06/24 14:35:38;;;;;;;;;;;;;;;;;;5048127;28;19925;-78
2022/06/24 14:40:49;;;;;;;;;;;;;;;;;;5040579;28;19936;-79
2022/06/24 14:43:15;;;;;;;;;;;;;;;;;;5040002;28;19929;-78
2022/06/24 14:45:42;;;;;;;;;;;;;;;;;;5040532;28;20024;-79
2022/06/24 14:48:08;;;;;;;;;;;;;;;;;;5041242;28;19961;-79
2022/06/24 14:50:35;;;;;;;;;;;;;;;;;;5040459;28;19972;-79
2022/06/24 14:53:03;;;;;;;;;;;;;;;;;;5041387;28;19956;-79
2022/06/24 14:55:30;;;;;;;;;;;;;;;;;;5042009;28;19925;-79
2022/06/24 14:57:57;;;;;;;;;;;;;;;;;;5041254;28;19952;-79
2022/06/24 15:00:25;;;;;;;;;;;;;;;;;;5040487;28;20380;-79
2022/06/24 15:02:52;;;;;;;;;;;;;;;;;;5041431;28;19932;-79
2022/06/24 15:05:19;;;;;;;;;;;;;;;;;;5041389;28;19956;-78
2022/06/24 15:07:45;;;;;;;;;;;;;;;;;;5040969;28;19936;-78
2022/06/24 15:10:13;;;;;;;;;;;;;;;;;;5039569;28;19925;-78
2022/06/24 15:12:40;;;;;;;;;;;;;;;;;;5040155;28;19965;-79
2022/06/24 15:15:07;;;;;;;;;;;;;;;;;;5039905;28;19972;-79
2022/06/24 15:17:34;;;;;;;;;;;;;;;;;;5039993;28;20027;-78
2022/06/24 15:20:00;;;;;;;;;;;;;;;;;;5038873;28;19977;-79
2022/06/24 15:22:27;;;;;;;;;;;;;;;;;;5039278;28;19932;-80
2022/06/24 15:24:54;;;;;;;;;;;;;;;;;;5040744;28;19925;-79
2022/06/24 15:27:22;;;;;;;;;;;;;;;;;;5043403;28;20348;-79
2022/06/24 15:29:49;;;;;;;;;;;;;;;;;;5042667;28;19926;-80
2022/06/24 15:32:15;;;;;;;;;;;;;;;;;;5043111;28;20027;-80
2022/06/24 15:34:42;;;;;;;;;;;;;;;;;;5038774;28;19956;-77
2022/06/24 15:37:08;;;;;;;;;;;;;;;;;;5038601;28;20367;-77
2022/06/24 15:39:35;;;;;;;;;;;;;;;;;;5041387;28;19968;-79
2022/06/24 15:42:01;;;;;;;;;;;;;;;;;;5040672;28;20008;-79
2022/06/24 15:44:29;;;;;;;;;;;;;;;;;;5041136;28;19992;-79
2022/06/24 15:46:55;;;;;;;;;;;;;;;;;;5041795;28;20379;-78
2022/06/24 15:49:22;;;;;;;;;;;;;;;;;;5041362;28;19996;-78
2022/06/24 15:51:48;;;;;;;;;;;;;;;;;;5041180;28;20372;-78
2022/06/24 15:54:15;;;;;;;;;;;;;;;;;;5040397;28;19964;-78
2022/06/24 15:56:42;;;;;;;;;;;;;;;;;;5041000;28;19968;-78
2022/06/24 15:59:09;;;;;;;;;;;;;;;;;;5041773;28;19925;-78
2022/06/24 16:01:37;;;;;;;;;;;;;;;;;;5045747;28;20003;-78
2022/06/24 16:04:04;;;;;;;;;;;;;;;;;;5044296;28;19926;-78
2022/06/24 16:06:30;;;;;;;;;;;;;;;;;;5040996;28;19968;-78
2022/06/24 16:08:57;;;;;;;;;;;;;;;;;;5040074;28;19925;-78
2022/06/24 16:11:24;;;;;;;;;;;;;;;;;;5039752;28;19925;-78
2022/06/24 16:13:50;;;;;;;;;;;;;;;;;;5039882;28;20355;-78
2022/06/24 16:16:17;;;;;;;;;;;;;;;;;;5038444;28;19925;-79
2022/06/24 16:18:45;;;;;;;;;;;;;;;;;;5037988;28;19982;-78
2022/06/24 16:21:11;;;;;;;;;;;;;;;;;;5037792;28;19968;-78
2022/06/24 16:23:37;;;;;;;;;;;;;;;;;;5019469;28;19925;-78
2022/06/24 16:28:49;;;;;;;;;;;;;;;;;;5019913;28;19960;-78
2022/06/24 16:31:17;;;;;;;;;;;;;;;;;;5021210;28;20302;-79
2022/06/24 16:33:47;;;;;;;;;;;;;;;;;;5021221;28;19925;-80
2022/06/24 16:36:14;;;;;;;;;;;;;;;;;;5022568;28;19975;-80
2022/06/24 16:38:42;;;;;;;;;;;;;;;;;;5021637;28;19926;-79
2022/06/24 16:41:08;;;;;;;;;;;;;;;;;;5021148;28;19933;-79
2022/06/24 16:43:35;;;;;;;;;;;;;;;;;;5019892;28;19976;-79
2022/06/24 16:46:03;;;;;;;;;;;;;;;;;;5019937;28;19930;-79
2022/06/24 16:48:31;;;;;;;;;;;;;;;;;;5020342;28;19925;-79
2022/06/24 16:50:59;;;;;;;;;;;;;;;;;;5019559;28;19932;-79
2022/06/24 16:53:26;;;;;;;;;;;;;;;;;;5019894;28;19977;-78
2022/06/24 16:55:52;;;;;;;;;;;;;;;;;;5020212;28;19979;-78
2022/06/24 16:58:19;;;;;;;;;;;;;;;;;;5021760;28;20301;-78
2022/06/24 17:00:46;;;;;;;;;;;;;;;;;;5021364;28;20001;-79
2022/06/24 17:03:13;;;;;;;;;;;;;;;;;;5021265;28;19933;-79
2022/06/24 17:05:39;;;;;;;;;;;;;;;;;;5020939;28;19960;-78
2022/06/24 17:08:08;;;;;;;;;;;;;;;;;;5026210;28;19964;-78
2022/06/24 17:10:34;;;;;;;;;;;;;;;;;;5029775;28;19960;-78